Marquette, MI (49855)

12:29 PM EDT on April 26, 2017 (GMT -0400)
MarquetteWeather.com | | Change Station

Elev 730 ft 46.54 °N, 87.40 °W | Updated 38 seconds ago

Fog
Fog
38.9 °F
Feels Like 39 °F
N
3.0
Wind Variable Wind from NW
Gusts 8.0 mph

Today
High -- | Low -- °F
--% Chance of Precip.
Yesterday
High -- | Low -- °F
Precip. -- in
Pressure 29.48 in
Visibility 0.2 miles
Clouds Overcast 200 ft
Windchill 39 °F
Dew Point 38 °F
Humidity 96%
Rainfall 0.62 in
Snow Depth Not available.
6:42 AM 8:52 PM
New Moon, 0% visible
METAR KSAW 261547Z 02006KT M1/4SM FG OVC002 04/04 A2948
Pressure 29.48 in
Visibility 0.2 miles
Clouds Overcast 200 ft
Windchill 39 °F
Dew Point 38 °F
Humidity 96%
Rainfall 0.62 in
Snow Depth Not available.
6:42 AM 8:52 PM
New Moon, 0% visible
METAR KSAW 261547Z 02006KT M1/4SM FG OVC002 04/04 A2948

Get Severe Weather Alerts

Thanks for signing up!

Be on the lookout for a verification email in your inbox.

You'll start receiving the daily forecast at 8 AM.

×

10-Day Weather Forecast

Almanac

Astronomy

Apr. 26, 2017 Rise Set
Actual Time
Civil Twilight
Nautical Twilight
Astronomical Twilight
Moon
Length of Visible Light
Length of Day
Tomorrow will be .
, % of the Moon is Illuminated

Today's Extremes

State Highs State Lows

Community

WunderPhotos

WunderBlog® & News

Nearby

Air Quality

  Air Quality AQ Index Pollutant
Not available.

Snow Depth

Station Depth Elevation

Earthquake Activity

City Distance Mag. Time & Date
Minimum magnitude displayed is 2.5.

Coastal Water Temperatures

Place Temperature

Stations

Nearby Weather Stations

Station Location Temp. Windchill Dew Point Humidity Wind Precip. Elev Updated Type
                   

Watches & Warnings

There are currently no watches in effect.